Details From MNMG - Managua Intl
To MGGT - La Aurora
Flight Number -
Tags generated
Created
Modified
Stats Distance 299 nm / 554 km
Max Altitude 30,000 ft / 9,144 m
Waypoints 7
Social Downloads 1
Likes 0
Share VATSIM

Download

Looking for another format? Having issues loading an existing format? Contact us
Advertisement - Login to hide

Notes

Basic altitude profile: - Ascent Rate: 2500ft/min - Ascent Speed: 300kts - Cruise Altitude: 30000ft - Cruise Speed: 340kts - Descent Rate: 2000ft/min - Descent Speed: 250kts

Route

MNMG TUKOR UA317 BARAS MGGT

ID Type Via Altitude Latitude Longitude Leg Dist Tot Dist Heading (true) Name
O MNMG APT - 0 ft / 0 m 12.14149˚ -86.16818˚ - 0 nm - Managua Intl
TUKOR FIX - 30,000 ft / 9,144 m 12.88667˚ -87.81667˚ 106 nm 106 nm 295° / 295° -
GABOS FIX UA317 (AWY-HI) 30,000 ft / 9,144 m 13.09167˚ -88.27000˚ 29 nm 135 nm 295° / 295° -
ONGOS FIX UA317 (AWY-HI) 30,000 ft / 9,144 m 13.28833˚ -88.70500˚ 28 nm 163 nm 295° / 295° -
CAT VOR UA317 (AWY-HI) 30,000 ft / 9,144 m 13.44139˚ -89.04775˚ 22 nm 185 nm 295° / 295° EL SALVADOR VOR-DME
BARAS FIX UA317 (AWY-HI) 28,400 ft / 8,656 m 13.57694˚ -89.54306˚ 30 nm 215 nm 286° / 286° -
O MGGT APT - 0 ft / 0 m 14.58327˚ -90.52747˚ 83 nm 299 nm 317° / 316° La Aurora

Altitude Profile

Advertisement - Login to hide

Weather


0- 5 10 15 20 25 30 35+ Temperature / ° C

Clouds and Precipitation
Forecast for 2017-12-16 06:00 UTC. Updated 5 minutes ago

Ground ~20,000 ft ~40,000 ft Winds

MNMG

Details ICAO MNMG (MGA)
Name Managua Intl
Region Nicaragua
Timezone America/Managua (UTC-6.0)
Stats Elevation 194 ft / 59 m (AMSL)
Location 12.141493° -86.168178°
Runways 1
Magnetic Variation 0.946° W

METAR

MNMG 160500Z 14004KT 9999 FEW021 23/20 Q1012 A29/89 NOSIG

Decode

TAF

Not found

Departure Runways

ID Width Length Bearing (true) Bearing (mag) Surface Threshold Offset Overrun Length
09 148 ft / 45 m 8,008 ft / 2,441 m 96.54° 97.49° Asphalt 0 ft / 0 m 100 ft / 30 m
27 148 ft / 45 m 8,008 ft / 2,441 m 276.55° 277.50° Asphalt 0 ft / 0 m 100 ft / 30 m

MGGT

Details ICAO MGGT (GUA)
Name La Aurora
Region Guatemala
Timezone America/Guatemala (UTC-6.0)
Stats Elevation 4,952 ft / 1,509 m (AMSL)
Location 14.583272° -90.527473°
Runways 1
Magnetic Variation 1.070° E

METAR

MGGT 160500Z 36010KT 9999 BKN012 17/15 Q1027 A3033

Decode

TAF

Not found

Destination Runways

ID Width Length Bearing (true) Bearing (mag) Surface Threshold Offset Overrun Length
01 196 ft / 60 m 9,841 ft / 3,000 m 17.29° 16.22° Asphalt 0 ft / 0 m 0 ft / 0 m
19 196 ft / 60 m 9,841 ft / 3,000 m 197.29° 196.22° Asphalt 722 ft / 220 m 0 ft / 0 m

Approach Navaids

Runway Type Ident Frequency Range Bearing (true) Bearing (mag) Slope Elevation
01 Localiser IAAI 110.10 MHz 18 nm / 33 km 17.36° 16.29° - 4,952 ft / 1,509 m (AMSL)
01 Glidescope IAAI 110.10 MHz 10 nm / 19 km 17.29° 16.22° 3.00° 4,952 ft / 1,509 m (AMSL)
01 DME IAAI 110.10 MHz 18 nm / 33 km - - - 4,952 ft / 1,509 m (AMSL)

Popular Alternatives